Time;durP1;ratioP1;P1;durP2;ratioP2;P2;SDS_P1;SDS_P2;PMS_P1;PMS_P2;Temp;Humidity;BMP_temperature;BMP_pressure;BME280_temperature;BME280_humidity;BME280_pressure;Samples;Min_cycle;Max_cycle;Signal;HPM_P1;HPM_P2
2023/10/16 00:01:56;;;;;;;;;;;2.70;99.90;;;1.10;100.00;98375.94;5026301;28;1644;-71
2023/10/16 00:04:23;;;;;;;;;;;2.70;99.90;;;1.05;100.00;98375.91;5042638;28;1899;-72
2023/10/16 00:06:50;;;;;;;;;;;2.60;99.90;;;1.05;100.00;98368.22;5048182;28;1496;-71
2023/10/16 00:09:24;;;;;;;;;;;2.60;99.90;;;0.82;100.00;98360.34;5012935;28;1564;-72
2023/10/16 00:11:51;;;;;;;;;;;2.50;99.90;;;0.82;100.00;98370.56;5049667;28;1470;-73
2023/10/16 00:14:23;;;;;;;;;;;2.50;99.90;;;0.72;100.00;98369.63;5044254;28;1486;-72
2023/10/16 00:16:51;;;;;;;;;;;2.40;99.90;;;0.73;100.00;98362.81;5023586;28;1708;-72
2023/10/16 00:19:18;;;;;;;;;;;2.40;99.90;;;0.45;100.00;98369.38;5049668;28;1510;-73
2023/10/16 00:21:46;;;;;;;;;;;2.30;99.90;;;0.40;100.00;98362.50;5045813;28;1950;-72
2023/10/16 00:24:13;;;;;;;;;;;2.20;99.90;;;0.32;100.00;98361.59;5022756;28;1910;-72
2023/10/16 00:26:49;;;;;;;;;;;2.20;99.90;;;0.35;100.00;98366.72;5038690;28;1681;-72
2023/10/16 00:29:19;;;;;;;;;;;2.10;99.90;;;0.29;100.00;98363.22;5027757;28;1539;-72
2023/10/16 00:31:51;;;;;;;;;;;2.10;99.90;;;0.37;100.00;98361.63;5023892;28;1570;-72
2023/10/16 00:34:21;;;;;;;;;;;2.00;99.90;;;0.31;100.00;98354.75;5025872;28;1602;-72
2023/10/16 00:36:53;;;;;;;;;;;2.00;99.90;;;0.26;100.00;98348.75;5010856;28;1488;-71
2023/10/16 00:39:22;;;;;;;;;;;1.90;99.90;;;0.23;100.00;98361.47;5042990;28;1784;-72
2023/10/16 00:41:50;;;;;;;;;;;1.90;99.90;;;0.29;100.00;98345.34;5025078;28;1665;-71
2023/10/16 00:44:17;;;;;;;;;;;1.90;99.90;;;0.25;100.00;98354.69;5028752;28;1920;-72
2023/10/16 00:46:50;;;;;;;;;;;1.90;99.90;;;0.32;100.00;98348.81;5025922;28;1515;-72
2023/10/16 00:49:18;;;;;;;;;;;1.90;99.90;;;0.26;100.00;98345.34;5039955;28;1840;-72
2023/10/16 00:51:49;;;;;;;;;;;1.90;99.90;;;0.29;100.00;98341.09;5027128;28;1750;-71
2023/10/16 00:54:27;;;;;;;;;;;1.90;99.90;;;0.32;100.00;98341.16;5028209;28;2042;-72
2023/10/16 00:56:57;;;;;;;;;;;1.90;99.90;;;0.34;100.00;98338.59;5035756;28;1626;-72
2023/10/16 00:59:25;;;;;;;;;;;1.90;99.90;;;0.37;100.00;98341.19;5025458;28;1574;-72
2023/10/16 01:02:04;;;;;;;;;;;2.00;99.90;;;0.37;100.00;98336.09;5044668;28;1474;-71
2023/10/16 01:04:32;;;;;;;;;;;1.90;99.90;;;0.16;100.00;98331.59;5025897;28;1987;-72
2023/10/16 01:07:00;;;;;;;;;;;1.90;99.90;;;0.27;100.00;98326.63;5029379;28;1519;-71
2023/10/16 01:09:33;;;;;;;;;;;1.90;99.90;;;0.33;100.00;98331.78;5025844;28;1576;-72
2023/10/16 01:12:06;;;;;;;;;;;1.90;99.90;;;0.28;100.00;98329.19;5041232;28;1633;-72
2023/10/16 01:14:35;;;;;;;;;;;1.90;99.90;;;0.20;100.00;98326.53;5024395;28;1423;-72
2023/10/16 01:17:03;;;;;;;;;;;1.90;99.90;;;0.25;100.00;98321.50;5021918;28;1409;-72
2023/10/16 01:19:31;;;;;;;;;;;1.90;99.90;;;0.30;100.00;98322.41;5044560;28;1658;-72
2023/10/16 01:22:00;;;;;;;;;;;1.90;99.90;;;0.24;100.00;98324.88;5038772;28;1506;-72
2023/10/16 01:24:27;;;;;;;;;;;1.70;99.90;;;0.03;100.00;98330.63;5027323;28;1985;-72
2023/10/16 01:27:01;;;;;;;;;;;1.50;99.90;;;-0.01;100.00;98326.31;5042196;28;1674;-71
2023/10/16 01:29:30;;;;;;;;;;;1.30;99.90;;;0.08;100.00;98326.41;5026381;28;1531;-72
2023/10/16 01:31:57;;;;;;;;;;;1.30;99.90;;;0.06;100.00;98324.69;5043496;28;1499;-72
2023/10/16 01:34:23;;;;;;;;;;;1.40;99.90;;;-0.04;100.00;98318.63;5027420;28;1351;-72
2023/10/16 01:36:51;;;;;;;;;;;1.50;99.90;;;-0.03;100.00;98322.88;5010938;28;1483;-71
2023/10/16 01:40:15;;;;;;;;;;;1.50;99.90;;;-0.05;100.00;98322.00;5022221;28;1428;-71
2023/10/16 01:42:11;;;;;;;;;;;1.50;99.90;;;0.22;100.00;98316.34;5034129;28;1820;-72
2023/10/16 01:44:43;;;;;;;;;;;1.60;99.90;;;0.32;100.00;98315.63;5027407;28;1981;-72
2023/10/16 01:47:15;;;;;;;;;;;1.70;99.90;;;0.24;100.00;98314.69;5040058;28;1560;-72
2023/10/16 01:49:43;;;;;;;;;;;1.70;99.90;;;0.25;100.00;98320.63;5040744;28;1496;-72
2023/10/16 01:52:11;;;;;;;;;;;1.70;99.90;;;0.26;100.00;98314.69;5032691;28;1729;-72
2023/10/16 01:54:44;;;;;;;;;;;1.80;99.90;;;0.09;100.00;98311.94;5020765;28;1558;-72
2023/10/16 01:57:12;;;;;;;;;;;1.80;99.90;;;0.16;100.00;98306.06;5034221;28;1452;-72
2023/10/16 01:59:44;;;;;;;;;;;1.70;99.90;;;-0.02;100.00;98307.59;5032483;28;1816;-72
2023/10/16 02:02:12;;;;;;;;;;;1.70;99.90;;;0.17;100.00;98305.25;5031206;28;1522;-72
2023/10/16 02:04:42;;;;;;;;;;;1.70;99.90;;;0.02;100.00;98302.53;5033694;28;1975;-71
2023/10/16 02:07:09;;;;;;;;;;;1.70;99.90;;;-0.03;100.00;98300.75;5033501;28;1620;-72
2023/10/16 02:09:36;;;;;;;;;;;1.60;99.90;;;-0.07;100.00;98298.16;5033922;28;1600;-71
2023/10/16 02:12:16;;;;;;;;;;;1.60;99.90;;;-0.02;100.00;98297.38;5029813;28;1667;-72
2023/10/16 02:14:44;;;;;;;;;;;1.50;99.90;;;-0.07;100.00;98293.94;5045766;28;1600;-72
2023/10/16 02:17:19;;;;;;;;;;;1.50;99.90;;;-0.17;100.00;98291.25;5046988;28;1486;-72
2023/10/16 02:19:48;;;;;;;;;;;1.50;99.90;;;-0.23;100.00;98287.81;5028497;28;1509;-72
2023/10/16 02:22:16;;;;;;;;;;;1.50;99.90;;;-0.17;100.00;98296.34;5015727;28;1467;-72
2023/10/16 02:24:44;;;;;;;;;;;1.40;99.90;;;-0.24;100.00;98280.13;5035817;28;1988;-72
2023/10/16 02:27:12;;;;;;;;;;;1.40;99.90;;;-0.50;100.00;98280.66;5022454;28;1548;-73
2023/10/16 02:29:45;;;;;;;;;;;1.30;99.90;;;-0.58;100.00;98276.31;5046007;28;1951;-73
2023/10/16 02:32:13;;;;;;;;;;;1.20;99.90;;;-0.73;100.00;98280.38;5032861;28;1612;-71
2023/10/16 02:34:41;;;;;;;;;;;1.20;99.90;;;-0.48;100.00;98284.09;5031182;28;1643;-72
2023/10/16 02:37:14;;;;;;;;;;;1.10;99.90;;;-0.50;100.00;98293.41;5030582;28;1553;-72
2023/10/16 02:39:50;;;;;;;;;;;1.10;99.90;;;-0.54;100.00;98286.56;5027258;28;1569;-71
2023/10/16 02:42:17;;;;;;;;;;;0.90;99.90;;;-0.46;100.00;98284.97;5046003;28;1501;-72
2023/10/16 02:44:45;;;;;;;;;;;0.90;99.90;;;-0.41;100.00;98277.38;5043421;28;1985;-71
2023/10/16 02:47:24;;;;;;;;;;;1.00;99.90;;;-0.34;100.00;98281.72;5047445;28;1597;-72
2023/10/16 02:49:51;;;;;;;;;;;1.10;99.90;;;-0.18;100.00;98282.75;5042140;28;1597;-72
2023/10/16 02:52:21;;;;;;;;;;;1.20;99.90;;;-0.20;100.00;98278.47;5032382;28;1562;-72
2023/10/16 02:54:48;;;;;;;;;;;1.30;99.90;;;-0.32;100.00;98274.94;5045383;28;1584;-72
2023/10/16 02:57:15;;;;;;;;;;;1.20;99.90;;;-0.35;100.00;98276.59;5042768;28;1522;-73
2023/10/16 02:59:45;;;;;;;;;;;1.20;99.90;;;-0.56;100.00;98278.03;5045666;28;1574;-72
2023/10/16 03:02:35;;;;;;;;;;;1.10;99.90;;;-0.44;100.00;98282.44;5042950;28;1534;-72
2023/10/16 03:05:21;;;;;;;;;;;1.10;99.90;;;-0.55;100.00;98274.63;5040768;28;1902;-71
2023/10/16 03:07:50;;;;;;;;;;;1.10;99.90;;;-0.56;100.00;98266.97;5045217;28;1459;-72
2023/10/16 03:10:17;;;;;;;;;;;1.10;99.90;;;-0.50;100.00;98267.03;5043499;28;1530;-71
2023/10/16 03:12:44;;;;;;;;;;;1.10;99.90;;;-0.52;100.00;98259.38;5022966;28;1537;-71
2023/10/16 03:15:20;;;;;;;;;;;1.10;99.90;;;-0.40;100.00;98271.44;5033561;28;1615;-72
2023/10/16 03:17:54;;;;;;;;;;;1.10;99.90;;;-0.67;100.00;98269.38;5029878;28;1516;-72
2023/10/16 03:20:23;;;;;;;;;;;1.10;99.90;;;-0.63;100.00;98271.16;5028834;28;2171;-72
2023/10/16 03:22:50;;;;;;;;;;;1.00;99.90;;;-0.60;100.00;98271.16;5046163;28;1546;-70
2023/10/16 03:25:28;;;;;;;;;;;1.00;99.90;;;-0.78;100.00;98266.69;5041086;28;1984;-70
2023/10/16 03:27:57;;;;;;;;;;;1.00;99.90;;;-0.55;100.00;98266.13;5044540;28;1428;-72
2023/10/16 03:30:26;;;;;;;;;;;1.00;99.90;;;-0.59;100.00;98274.56;5040956;28;1558;-73
2023/10/16 03:32:54;;;;;;;;;;;1.00;99.90;;;-0.63;100.00;98282.19;5046584;28;1512;-72
2023/10/16 03:35:26;;;;;;;;;;;1.00;99.90;;;-0.49;100.00;98277.28;5018665;28;1619;-72
2023/10/16 03:37:54;;;;;;;;;;;1.00;99.90;;;-0.68;100.00;98271.09;5041242;28;1675;-72
2023/10/16 03:40:25;;;;;;;;;;;1.00;99.90;;;-0.76;100.00;98272.66;5026319;28;1508;-72
2023/10/16 03:42:53;;;;;;;;;;;0.90;99.90;;;-0.59;100.00;98272.03;5027462;28;1610;-70
2023/10/16 03:45:21;;;;;;;;;;;0.90;99.90;;;-0.67;100.00;98264.28;5045565;28;2008;-71
2023/10/16 03:47:52;;;;;;;;;;;1.00;99.90;;;-0.73;100.00;98264.19;5045306;28;1632;-72
2023/10/16 03:50:24;;;;;;;;;;;0.90;99.90;;;-0.78;100.00;98264.13;5029999;28;1542;-72
2023/10/16 03:52:54;;;;;;;;;;;0.90;99.90;;;-0.72;100.00;98264.22;5038082;28;1509;-72
2023/10/16 03:55:25;;;;;;;;;;;0.90;99.90;;;-0.61;100.00;98266.06;5025781;28;1605;-72
2023/10/16 03:57:52;;;;;;;;;;;0.80;99.90;;;-0.90;100.00;98267.38;5044846;28;1565;-72
2023/10/16 04:00:25;;;;;;;;;;;0.60;99.90;;;-0.85;100.00;98262.34;5045004;28;1692;-71
2023/10/16 04:02:52;;;;;;;;;;;0.50;99.90;;;-0.79;100.00;98262.44;5041725;28;1550;-70
2023/10/16 04:08:09;;;;;;;;;;;0.60;99.90;;;-0.73;100.00;98259.97;5034737;28;1550;-72
2023/10/16 04:10:40;;;;;;;;;;;0.70;99.90;;;-0.73;100.00;98257.44;5043819;28;1382;-72
2023/10/16 04:13:07;;;;;;;;;;;0.80;99.90;;;-0.64;100.00;98249.91;5043925;28;1628;-72
2023/10/16 04:26:33;;;;;;;;;;;0.90;99.90;;;-0.66;100.00;98245.63;5027996;28;1918;-71
2023/10/16 04:48:06;;;;;;;;;;;0.80;99.90;;;-0.85;100.00;98236.84;5030921;28;1545;-72
2023/10/16 04:53:12;;;;;;;;;;;0.80;99.90;;;-0.75;100.00;98238.72;5042162;28;1601;-71
2023/10/16 05:00:57;;;;;;;;;;;0.80;99.90;;;-0.98;100.00;98237.53;5023936;28;1447;-71
2023/10/16 05:06:38;;;;;;;;;;;0.70;99.90;;;-0.76;100.00;98231.03;5043324;28;1910;-72
2023/10/16 05:17:58;;;;;;;;;;;0.90;99.90;;;-0.52;100.00;98218.59;5028157;28;1468;-72
2023/10/16 06:15:37;;;;;;;;;;;1.80;99.90;;;0.50;100.00;98177.00;5030186;28;1399;-72
2023/10/16 06:18:06;;;;;;;;;;;1.90;99.90;;;0.62;100.00;98179.63;5032583;28;1514;-72
2023/10/16 06:20:37;;;;;;;;;;;1.90;99.90;;;0.63;100.00;98181.34;5048598;28;1379;-72
2023/10/16 06:23:09;;;;;;;;;;;2.00;99.90;;;0.73;100.00;98189.94;5032096;28;1768;-72
2023/10/16 06:25:37;;;;;;;;;;;2.00;99.90;;;0.88;100.00;98184.03;5023344;28;1922;-72
2023/10/16 06:28:11;;;;;;;;;;;2.10;99.90;;;1.10;100.00;98184.19;5010743;28;1578;-72
2023/10/16 06:30:38;;;;;;;;;;;2.20;99.90;;;1.06;100.00;98182.44;5042447;28;1562;-72
2023/10/16 06:33:05;;;;;;;;;;;2.30;99.90;;;1.00;100.00;98186.69;5023901;28;1416;-72
2023/10/16 06:35:33;;;;;;;;;;;2.40;99.90;;;1.06;100.00;98183.28;5039268;28;1393;-72
2023/10/16 06:38:00;;;;;;;;;;;2.40;99.90;;;1.05;100.00;98179.03;5041386;28;1453;-72
2023/10/16 06:40:27;;;;;;;;;;;2.40;99.90;;;1.02;100.00;98179.84;5037786;28;1327;-72
2023/10/16 06:43:09;;;;;;;;;;;2.40;99.90;;;1.11;100.00;98185.88;5037111;28;1401;-72
2023/10/16 06:45:41;;;;;;;;;;;2.40;99.90;;;1.37;100.00;98184.28;5035635;28;1899;-72
2023/10/16 06:48:15;;;;;;;;;;;2.50;99.90;;;1.55;100.00;98178.38;5030425;28;1501;-72
2023/10/16 06:50:53;;;;;;;;;;;2.60;99.90;;;1.52;100.00;98175.78;5041976;28;1379;-72
2023/10/16 06:53:24;;;;;;;;;;;2.70;99.90;;;1.81;100.00;98187.81;5045540;28;1691;-72
2023/10/16 06:55:51;;;;;;;;;;;2.90;99.90;;;2.02;100.00;98179.31;5022664;28;1408;-72
2023/10/16 06:58:21;;;;;;;;;;;3.00;99.90;;;2.08;100.00;98182.75;5045423;28;1376;-73
2023/10/16 07:00:49;;;;;;;;;;;3.10;99.90;;;2.27;100.00;98177.63;5025294;28;1445;-72
2023/10/16 07:03:16;;;;;;;;;;;3.30;99.90;;;2.43;100.00;98179.31;5043843;28;1122;-72
2023/10/16 07:05:43;;;;;;;;;;;3.40;99.90;;;2.54;100.00;98187.00;5015475;28;2549;-72
2023/10/16 07:08:17;;;;;;;;;;;3.60;99.90;;;2.73;100.00;98188.69;5047828;28;1517;-72
2023/10/16 07:10:49;;;;;;;;;;;3.70;99.90;;;2.90;100.00;98180.97;5043979;28;1381;-72
2023/10/16 07:13:29;;;;;;;;;;;3.90;99.90;;;3.09;100.00;98193.75;5028014;28;1053;-72
2023/10/16 07:16:01;;;;;;;;;;;4.10;99.90;;;3.26;100.00;98197.13;5041412;28;1290;-72
2023/10/16 07:18:31;;;;;;;;;;;4.20;99.90;;;3.38;100.00;98197.94;5030048;28;1770;-71
2023/10/16 07:20:59;;;;;;;;;;;4.40;99.90;;;3.51;100.00;98204.69;5026633;28;1382;-72
2023/10/16 07:23:34;;;;;;;;;;;4.50;99.90;;;3.63;100.00;98199.53;5018641;28;1298;-72
2023/10/16 07:26:06;;;;;;;;;;;4.70;99.90;;;3.66;100.00;98199.50;5043113;28;1901;-71
2023/10/16 07:28:33;;;;;;;;;;;4.80;99.90;;;3.80;100.00;98207.13;5044635;28;1013;-72
2023/10/16 07:31:02;;;;;;;;;;;4.90;99.90;;;3.82;100.00;98207.97;5031408;28;1396;-72
2023/10/16 07:33:30;;;;;;;;;;;5.00;99.90;;;4.09;100.00;98208.69;5026991;28;1183;-72
2023/10/16 07:36:01;;;;;;;;;;;5.20;99.90;;;4.36;100.00;98205.91;5025150;28;1418;-71
2023/10/16 07:38:28;;;;;;;;;;;5.50;99.90;;;4.55;100.00;98204.03;5025521;28;1344;-71
2023/10/16 07:40:59;;;;;;;;;;;5.70;99.90;;;4.63;100.00;98209.13;5031496;28;1529;-72
2023/10/16 07:43:33;;;;;;;;;;;5.90;99.90;;;4.61;100.00;98218.59;5024873;28;1422;-72
2023/10/16 07:48:40;;;;;;;;;;;6.20;99.90;;;4.97;100.00;98214.81;5045123;28;1372;-72
2023/10/16 07:51:11;;;;;;;;;;;6.50;99.90;;;5.02;100.00;98215.63;5050096;28;1369;-72
2023/10/16 07:53:38;;;;;;;;;;;6.60;99.90;;;5.17;100.00;98208.59;5027221;28;1431;-71
2023/10/16 07:58:56;;;;;;;;;;;6.80;99.90;;;5.57;100.00;98209.00;5031522;28;1434;-72
2023/10/16 08:01:36;;;;;;;;;;;7.00;99.90;;;5.66;100.00;98205.44;5030598;28;1474;-72
2023/10/16 08:04:18;;;;;;;;;;;7.30;99.90;;;5.64;100.00;98210.63;5024582;28;1384;-72
2023/10/16 08:07:04;;;;;;;;;;;7.50;99.90;;;5.47;100.00;98209.13;5025630;28;1977;-72
2023/10/16 08:12:12;;;;;;;;;;;7.50;99.90;;;6.24;100.00;98204.66;5026124;28;1407;-72
2023/10/16 08:14:41;;;;;;;;;;;7.70;99.90;;;6.22;100.00;98202.97;5048173;28;1620;-73
2023/10/16 08:17:14;;;;;;;;;;;8.10;99.90;;;6.68;100.00;98207.41;5045981;28;1288;-73
2023/10/16 08:19:46;;;;;;;;;;;8.30;99.90;;;6.60;100.00;98202.38;5045496;28;1418;-72
2023/10/16 08:22:16;;;;;;;;;;;8.40;99.90;;;6.66;100.00;98196.25;5027096;28;1822;-72
2023/10/16 08:24:59;;;;;;;;;;;8.60;99.90;;;6.84;100.00;98190.78;5040344;28;1452;-72
2023/10/16 08:30:18;;;;;;;;;;;9.30;99.90;;;6.74;100.00;98201.28;5043285;28;1365;-72
2023/10/16 08:35:22;;;;;;;;;;;9.50;99.90;;;6.38;100.00;98194.13;5042140;28;1396;-73
2023/10/16 08:37:56;;;;;;;;;;;9.30;99.90;;;6.46;100.00;98191.44;5045851;28;1055;-73
2023/10/16 08:40:39;;;;;;;;;;;9.00;99.90;;;6.27;100.00;98196.00;5038768;28;1611;-73
2023/10/16 08:43:09;;;;;;;;;;;8.80;99.90;;;6.17;100.00;98197.03;5044423;28;1441;-72
2023/10/16 08:45:44;;;;;;;;;;;8.60;99.90;;;6.34;100.00;98207.09;5046772;28;1203;-73
2023/10/16 08:48:17;;;;;;;;;;;8.30;99.90;;;6.60;100.00;98204.09;5040484;28;1910;-73
2023/10/16 08:50:52;;;;;;;;;;;8.10;99.90;;;6.51;100.00;98201.69;5041271;28;1431;-73
2023/10/16 08:53:32;;;;;;;;;;;8.00;99.90;;;6.47;100.00;98198.28;5039560;28;1755;-73
2023/10/16 08:56:08;;;;;;;;;;;7.80;99.90;;;6.46;100.00;98206.91;5029763;28;1417;-72
2023/10/16 08:58:46;;;;;;;;;;;7.80;99.90;;;6.38;100.00;98201.84;5025026;28;1336;-72
2023/10/16 09:01:16;;;;;;;;;;;7.70;99.90;;;6.49;100.00;98205.13;5025053;28;1382;-72
2023/10/16 09:04:00;;;;;;;;;;;7.60;99.90;;;6.33;100.00;98198.50;5023881;28;1714;-72
2023/10/16 09:06:29;;;;;;;;;;;7.60;99.90;;;6.47;100.00;98196.56;5041549;28;1973;-72
2023/10/16 09:08:58;;;;;;;;;;;7.60;99.90;;;6.51;100.00;98197.38;5028478;28;1416;-73
2023/10/16 09:11:26;;;;;;;;;;;7.60;99.90;;;6.43;100.00;98201.78;5021747;28;1300;-72
2023/10/16 09:13:53;;;;;;;;;;;7.60;99.90;;;6.58;100.00;98201.53;5043933;28;1604;-73
2023/10/16 09:16:23;;;;;;;;;;;7.60;99.90;;;6.61;100.00;98203.22;5024767;28;1338;-72
2023/10/16 09:18:52;;;;;;;;;;;7.70;99.90;;;6.75;100.00;98202.97;5025361;28;1614;-71
2023/10/16 09:21:23;;;;;;;;;;;7.70;99.90;;;6.61;100.00;98196.31;5031811;28;1656;-72
2023/10/16 09:23:58;;;;;;;;;;;7.70;99.90;;;6.80;100.00;98190.88;5041508;28;1570;-72
2023/10/16 09:26:28;;;;;;;;;;;7.70;99.90;;;6.68;100.00;98179.00;5037313;28;1979;-73
2023/10/16 09:29:04;;;;;;;;;;;7.80;99.90;;;6.87;100.00;98188.16;5022762;28;1434;-73
2023/10/16 09:31:31;;;;;;;;;;;7.80;99.90;;;6.87;100.00;98187.31;5041214;28;1518;-73
2023/10/16 09:33:58;;;;;;;;;;;7.80;99.90;;;6.74;100.00;98183.22;5009335;28;1507;-72
2023/10/16 09:36:29;;;;;;;;;;;7.90;99.90;;;6.98;100.00;98176.75;5045742;28;1698;-73
2023/10/16 09:38:59;;;;;;;;;;;7.90;99.90;;;6.99;100.00;98171.59;5024431;28;1415;-72
2023/10/16 09:44:07;;;;;;;;;;;8.00;99.90;;;6.87;100.00;98172.66;5027005;28;1468;-73
2023/10/16 09:49:15;;;;;;;;;;;8.00;99.90;;;6.93;100.00;98181.16;5025164;28;1530;-71
2023/10/16 09:51:45;;;;;;;;;;;8.00;99.90;;;6.98;100.00;98180.22;5023624;28;1487;-72
2023/10/16 09:54:15;;;;;;;;;;;8.00;99.90;;;7.02;100.00;98178.41;5034219;28;1378;-73
2023/10/16 09:56:48;;;;;;;;;;;8.00;99.90;;;7.23;100.00;98171.97;5027436;28;1569;-73
2023/10/16 09:59:38;;;;;;;;;;;8.10;99.90;;;7.04;100.00;98169.75;5012337;28;1773;-74
2023/10/16 10:02:08;;;;;;;;;;;8.10;99.90;;;7.18;100.00;98174.66;5041639;28;1474;-73
2023/10/16 10:04:39;;;;;;;;;;;8.10;99.90;;;7.20;100.00;98164.31;5027771;28;1469;-73
2023/10/16 10:07:18;;;;;;;;;;;8.20;99.90;;;7.38;100.00;98160.50;5041503;28;1972;-73
2023/10/16 10:09:48;;;;;;;;;;;8.20;99.90;;;7.44;100.00;98174.16;5022919;28;1038;-72
2023/10/16 10:12:42;;;;;;;;;;;8.30;99.90;;;7.44;100.00;98168.16;5024736;28;1296;-73
2023/10/16 10:15:35;;;;;;;;;;;8.30;99.90;;;7.49;100.00;98174.06;5016257;28;1449;-73
2023/10/16 10:20:58;;;;;;;;;;;8.50;99.90;;;7.67;100.00;98159.91;5031129;28;1394;-73
2023/10/16 10:23:26;;;;;;;;;;;8.50;99.90;;;7.81;100.00;98157.03;5031418;28;1030;-73
2023/10/16 10:25:53;;;;;;;;;;;8.60;99.90;;;7.82;100.00;98162.13;5030160;28;1377;-73
2023/10/16 10:28:28;;;;;;;;;;;8.70;99.90;;;7.86;100.00;98157.75;5029544;28;1989;-72
2023/10/16 10:31:02;;;;;;;;;;;8.70;99.90;;;7.99;100.00;98163.50;5042672;28;1816;-72
2023/10/16 10:33:42;;;;;;;;;;;8.90;99.90;;;8.12;100.00;98144.25;5012811;28;1735;-72
2023/10/16 10:36:45;;;;;;;;;;;8.90;99.90;;;8.14;100.00;98151.09;5042831;28;1645;-71
2023/10/16 10:39:21;;;;;;;;;;;8.90;99.90;;;8.32;100.00;98146.34;4984787;28;1450;-72
2023/10/16 10:41:51;;;;;;;;;;;9.10;99.90;;;8.22;100.00;98144.88;5033384;28;1578;-72
2023/10/16 10:44:19;;;;;;;;;;;9.20;99.90;;;8.25;100.00;98137.88;5042034;28;1622;-72
2023/10/16 10:46:53;;;;;;;;;;;9.10;99.90;;;8.19;100.00;98132.88;5045749;28;1898;-72
2023/10/16 10:49:33;;;;;;;;;;;9.20;99.90;;;8.24;100.00;98128.44;5031171;28;2167;-73
2023/10/16 10:52:04;;;;;;;;;;;9.30;99.90;;;8.53;100.00;98119.97;5028263;28;1743;-73
2023/10/16 10:54:32;;;;;;;;;;;9.30;99.90;;;8.24;100.00;98120.66;5025169;28;1641;-72
2023/10/16 10:56:59;;;;;;;;;;;9.30;99.90;;;8.59;100.00;98119.78;5043868;28;1448;-73
2023/10/16 10:59:40;;;;;;;;;;;9.40;99.90;;;8.54;100.00;98113.06;5023690;28;1609;-72
2023/10/16 11:04:46;;;;;;;;;;;9.50;99.90;;;8.59;100.00;98106.84;5029403;28;1929;-73
2023/10/16 11:07:26;;;;;;;;;;;9.50;99.90;;;8.61;100.00;98090.47;5028958;28;1914;-73
2023/10/16 11:09:56;;;;;;;;;;;9.50;99.90;;;8.73;100.00;98088.38;5031801;28;1367;-72
2023/10/16 11:12:26;;;;;;;;;;;9.60;99.90;;;8.73;100.00;98093.56;5031848;28;1624;-72
2023/10/16 11:14:54;;;;;;;;;;;9.70;99.90;;;8.98;100.00;98087.72;5016878;28;1496;-73
2023/10/16 11:17:35;;;;;;;;;;;9.80;99.90;;;8.99;100.00;98084.25;5027987;28;1774;-74
2023/10/16 11:22:45;;;;;;;;;;;9.90;99.90;;;8.89;100.00;98077.63;5024394;28;1661;-73
2023/10/16 11:25:13;;;;;;;;;;;9.90;99.90;;;8.92;100.00;98075.78;4994726;28;1589;-73
2023/10/16 11:27:44;;;;;;;;;;;9.90;99.90;;;8.95;100.00;98067.09;4996864;28;1950;-74
2023/10/16 11:30:15;;;;;;;;;;;9.90;99.90;;;9.11;100.00;98060.56;5010745;28;1777;-75
2023/10/16 11:32:45;;;;;;;;;;;9.90;99.90;;;9.10;100.00;98063.19;4996254;28;1730;-74
2023/10/16 11:35:19;;;;;;;;;;;10.00;99.90;;;9.13;100.00;98057.94;5000639;28;1454;-74
2023/10/16 11:37:52;;;;;;;;;;;10.10;99.90;;;9.22;100.00;98062.88;5018061;28;1555;-72
2023/10/16 11:40:31;;;;;;;;;;;10.00;99.90;;;9.32;100.00;98059.09;5029467;28;1933;-72
2023/10/16 11:42:58;;;;;;;;;;;10.10;99.90;;;9.34;100.00;98053.88;5011704;28;1669;-72
2023/10/16 11:45:26;;;;;;;;;;;10.20;99.90;;;9.36;100.00;98052.09;5046084;28;1448;-72
2023/10/16 11:50:40;;;;;;;;;;;10.20;99.90;;;9.28;100.00;98043.69;5042506;28;1377;-72
2023/10/16 11:53:08;;;;;;;;;;;10.20;99.90;;;9.46;100.00;98037.94;5042992;28;1841;-72
2023/10/16 11:55:37;;;;;;;;;;;10.20;99.90;;;9.51;100.00;98035.22;5042647;28;1084;-72
2023/10/16 11:58:06;;;;;;;;;;;10.30;99.90;;;9.61;100.00;98034.03;5010753;28;1176;-72
2023/10/16 12:00:42;;;;;;;;;;;10.40;99.90;;;9.49;100.00;98030.09;5041950;28;1104;-74
2023/10/16 12:03:14;;;;;;;;;;;10.40;99.90;;;9.78;100.00;98026.59;5028665;28;1442;-72
2023/10/16 12:05:44;;;;;;;;;;;10.40;99.90;;;9.77;100.00;98029.22;5026631;28;1276;-72
2023/10/16 12:08:11;;;;;;;;;;;10.60;99.90;;;9.89;100.00;98015.00;5043008;28;1985;-72
2023/10/16 12:10:38;;;;;;;;;;;10.60;99.90;;;9.83;100.00;98016.06;5028395;28;1007;-72
2023/10/16 12:13:06;;;;;;;;;;;10.70;99.90;;;10.07;100.00;98011.81;5030207;28;1296;-73
2023/10/16 12:15:34;;;;;;;;;;;10.80;99.90;;;10.03;100.00;98008.47;5040013;28;1420;-72
2023/10/16 12:18:02;;;;;;;;;;;10.80;99.90;;;9.94;100.00;98006.16;5051074;28;1452;-73
2023/10/16 12:20:30;;;;;;;;;;;10.90;99.90;;;10.06;100.00;98004.94;5045885;28;1015;-72
2023/10/16 12:23:01;;;;;;;;;;;10.80;99.90;;;9.98;100.00;97996.56;5031619;28;1265;-72
2023/10/16 12:25:29;;;;;;;;;;;10.90;99.90;;;9.79;100.00;97986.78;5029041;28;1217;-72
2023/10/16 12:27:55;;;;;;;;;;;11.00;99.90;;;10.14;100.00;97989.94;5028866;28;1910;-72
2023/10/16 12:30:25;;;;;;;;;;;10.90;99.90;;;10.52;100.00;97979.16;5040386;28;1440;-72
2023/10/16 12:32:53;;;;;;;;;;;11.00;99.90;;;10.59;100.00;97972.84;5029380;28;1420;-72
2023/10/16 12:35:22;;;;;;;;;;;11.20;99.90;;;10.49;100.00;97963.69;5038368;28;1404;-73
2023/10/16 12:37:55;;;;;;;;;;;11.30;99.90;;;10.53;100.00;97967.88;5042538;28;1412;-72
2023/10/16 12:40:33;;;;;;;;;;;11.30;99.90;;;10.75;100.00;97962.75;5032374;28;1082;-71
2023/10/16 12:43:00;;;;;;;;;;;11.40;99.90;;;10.39;100.00;97961.44;5040501;28;1450;-72
2023/10/16 12:45:28;;;;;;;;;;;11.40;99.90;;;10.86;100.00;97956.25;5044566;28;1167;-72
2023/10/16 12:47:56;;;;;;;;;;;11.50;99.90;;;10.81;100.00;97952.13;5040281;28;1949;-72
2023/10/16 12:50:27;;;;;;;;;;;11.50;99.90;;;11.09;100.00;97954.53;5042569;28;1073;-72
2023/10/16 12:52:58;;;;;;;;;;;11.70;99.90;;;10.84;100.00;97942.47;5026901;28;1379;-72
2023/10/16 12:55:26;;;;;;;;;;;11.70;99.90;;;11.21;100.00;97938.44;5037544;28;1034;-72
2023/10/16 12:57:53;;;;;;;;;;;11.90;99.90;;;11.19;100.00;97937.66;5009483;28;1094;-72
2023/10/16 13:00:22;;;;;;;;;;;11.90;99.90;;;11.09;100.00;97934.59;5012827;28;1362;-73
2023/10/16 13:02:55;;;;;;;;;;;12.00;99.90;;;11.07;100.00;97933.81;5021994;28;1810;-72
2023/10/16 13:05:25;;;;;;;;;;;12.00;99.90;;;11.86;100.00;97923.69;5027987;28;1035;-72
2023/10/16 13:07:52;;;;;;;;;;;12.10;99.90;;;13.66;100.00;97902.47;5038410;28;1991;-72
2023/10/16 13:10:27;;;;;;;;;;;12.50;99.90;;;14.39;100.00;97889.16;5045431;28;1125;-72
2023/10/16 13:12:56;;;;;;;;;;;13.10;99.20;;;15.15;100.00;97878.09;5009529;28;1465;-73
2023/10/16 13:15:29;;;;;;;;;;;13.40;98.00;;;16.35;100.00;97865.84;5049185;28;1044;-72
2023/10/16 13:17:58;;;;;;;;;;;14.20;97.00;;;16.84;100.00;97868.91;5043399;28;1508;-73
2023/10/16 13:20:28;;;;;;;;;;;14.70;96.20;;;16.18;96.98;97872.13;5029719;28;1476;-72
2023/10/16 13:22:56;;;;;;;;;;;15.10;94.80;;;17.21;95.29;97866.53;5037209;28;1272;-72
2023/10/16 13:25:25;;;;;;;;;;;15.40;94.40;;;17.14;91.67;97873.97;5025315;28;1013;-72
2023/10/16 13:27:53;;;;;;;;;;;15.60;93.50;;;17.33;92.44;97857.91;5041712;28;1985;-73
2023/10/16 13:30:22;;;;;;;;;;;15.70;92.50;;;16.77;89.93;97877.25;5040287;28;1536;-73
2023/10/16 13:32:50;;;;;;;;;;;15.90;91.80;;;17.41;91.39;97875.75;5043766;28;1416;-72
2023/10/16 13:35:20;;;;;;;;;;;15.90;92.00;;;17.86;86.40;97863.16;5024542;28;1848;-73
2023/10/16 13:37:49;;;;;;;;;;;16.40;91.30;;;17.71;84.45;97862.38;5023906;28;1409;-73
2023/10/16 13:40:20;;;;;;;;;;;16.60;90.50;;;18.28;82.94;97858.53;5022542;28;1188;-73
2023/10/16 13:42:49;;;;;;;;;;;16.90;90.00;;;17.22;82.07;97867.38;5044617;28;1370;-73
2023/10/16 13:45:21;;;;;;;;;;;16.70;87.90;;;17.87;82.19;97851.69;5012247;28;987;-73
2023/10/16 13:47:49;;;;;;;;;;;16.80;88.10;;;17.88;82.20;97863.91;5041292;28;1660;-73
2023/10/16 13:50:24;;;;;;;;;;;16.90;87.10;;;17.07;80.25;97867.44;5043771;28;1393;-73
2023/10/16 13:52:53;;;;;;;;;;;16.90;85.70;;;16.70;81.00;97861.06;5041620;28;1296;-73
2023/10/16 13:55:21;;;;;;;;;;;16.60;85.30;;;16.18;80.90;97861.66;5043837;28;1183;-73
2023/10/16 13:57:50;;;;;;;;;;;16.40;85.80;;;16.06;81.55;97866.69;5021059;28;1891;-73
2023/10/16 14:00:31;;;;;;;;;;;16.20;85.50;;;16.44;82.16;97857.41;5035705;28;1327;-73
2023/10/16 14:03:04;;;;;;;;;;;16.20;84.20;;;17.62;80.09;97844.59;5022935;28;1273;-73
2023/10/16 14:05:50;;;;;;;;;;;16.40;85.40;;;17.51;81.08;97854.97;5038528;28;1641;-73